Currently 70°F in Pinon Hills, California, USA
70°F
70°F / 70°F
3 mph SW
0.00"
Thursday, October 1, 2020 12:02 AM PDT

Pinon Hills, California Climate Summary
Typical June Day

Normal High:    88.3°F (31.3°C)
Normal Low:    61.7°F (16.5°C)
Average:    75.4°F (24.1°C)

Hour    Temperature    Wind Speed    Humidity
12:00 AM    68°F (20°C)    3 mph    31%
1:00 AM    67°F (20°C)    3 mph    31%
2:00 AM    67°F (19°C)    3 mph    31%
3:00 AM    66°F (19°C)    3 mph    32%
4:00 AM    65°F (18°C)    3 mph    32%
5:00 AM    64°F (18°C)    3 mph    32%
6:00 AM    64°F (18°C)    2 mph    32%
7:00 AM    69°F (21°C)    2 mph    30%
8:00 AM    74°F (24°C)    2 mph    25%
9:00 AM    77°F (25°C)    2 mph    22%
10:00 AM    79°F (26°C)    2 mph    20%
11:00 AM    82°F (28°C)    3 mph    17%
12:00 PM    84°F (29°C)    3 mph    15%
1:00 PM    85°F (30°C)    4 mph    14%
2:00 PM    86°F (30°C)    4 mph    13%
3:00 PM    87°F (30°C)    4 mph    13%
4:00 PM    86°F (30°C)    4 mph    14%
5:00 PM    85°F (30°C)    4 mph    15%
6:00 PM    84°F (29°C)    5 mph    17%
7:00 PM    81°F (27°C)    5 mph    19%
8:00 PM    77°F (25°C)    4 mph    24%
9:00 PM    73°F (23°C)    3 mph    28%
10:00 PM    71°F (21°C)    2 mph    30%
11:00 PM    69°F (21°C)    3 mph    31%
 

The Pinon Hills, California weather pages are a service of WeatherCurrents.
Copyright ©2020  WeatherCurrents. All rights reserved. - Submit questions and comments - Privacy Policy